createdAt,value
2023-05-06T00:00:22.578Z,9.67
2023-05-06T00:02:49.588Z,9.67
2023-05-06T00:05:18.571Z,9.62
2023-05-06T00:07:46.393Z,9.59
2023-05-06T00:10:13.442Z,9.61
2023-05-06T00:12:39.940Z,9.64
2023-05-06T00:15:07.454Z,9.67
2023-05-06T00:17:34.393Z,9.75
2023-05-06T00:20:03.664Z,9.83
2023-05-06T00:22:30.170Z,9.86
2023-05-06T00:24:56.711Z,9.87
2023-05-06T00:27:23.272Z,9.92
2023-05-06T00:29:49.952Z,9.96
2023-05-06T00:32:21.860Z,10.01
2023-05-06T00:34:48.405Z,10.06
2023-05-06T00:37:14.936Z,10.04
2023-05-06T00:39:41.653Z,9.97
2023-05-06T00:42:08.174Z,9.95
2023-05-06T00:44:34.695Z,9.93
2023-05-06T00:47:01.920Z,9.92
2023-05-06T00:49:30.098Z,9.93
2023-05-06T00:51:57.674Z,9.96
2023-05-06T00:54:27.722Z,9.96
2023-05-06T00:56:54.588Z,9.95
2023-05-06T00:59:23.635Z,9.97
2023-05-06T01:01:52.160Z,10.01
2023-05-06T01:04:18.724Z,10.03
2023-05-06T01:07:16.325Z,10.06
2023-05-06T01:09:53.578Z,10.06
2023-05-06T01:12:38.785Z,10.05
2023-05-06T01:15:41.565Z,10.03
2023-05-06T01:18:20.861Z,10.00
2023-05-06T01:20:53.625Z,9.96
2023-05-06T01:23:20.738Z,9.91
2023-05-06T01:25:47.341Z,9.87
2023-05-06T01:28:14.267Z,9.82
2023-05-06T01:30:52.337Z,9.75
2023-05-06T01:33:42.381Z,9.69
2023-05-06T01:36:21.241Z,9.60
2023-05-06T01:38:47.604Z,9.54
2023-05-06T01:41:16.336Z,9.57
2023-05-06T01:43:46.317Z,9.60
2023-05-06T01:46:18.923Z,9.60
2023-05-06T01:48:49.573Z,9.54
2023-05-06T01:51:16.118Z,9.37
2023-05-06T01:53:42.815Z,9.23
2023-05-06T01:56:09.561Z,9.18
2023-05-06T01:58:36.148Z,9.16
2023-05-06T02:01:02.770Z,9.13
2023-05-06T02:03:31.225Z,9.11
2023-05-06T02:05:57.825Z,9.07
2023-05-06T02:08:24.339Z,9.01
2023-05-06T02:10:51.161Z,8.98
2023-05-06T02:13:18.789Z,8.97
2023-05-06T02:15:46.345Z,8.92
2023-05-06T02:18:12.822Z,8.88
2023-05-06T02:20:40.791Z,8.84
2023-05-06T02:23:07.311Z,8.80
2023-05-06T02:25:33.826Z,8.71
2023-05-06T02:28:00.376Z,8.66
2023-05-06T02:30:26.860Z,8.62
2023-05-06T02:32:53.428Z,8.60
2023-05-06T02:35:21.037Z,8.58
2023-05-06T02:37:47.584Z,8.45
2023-05-06T02:40:14.370Z,8.32
2023-05-06T02:42:40.876Z,8.27
2023-05-06T02:45:11.048Z,8.23
2023-05-06T02:47:38.032Z,8.24
2023-05-06T02:50:04.877Z,8.21
2023-05-06T02:52:32.616Z,8.18
2023-05-06T02:54:59.125Z,8.15
2023-05-06T02:57:25.769Z,8.16
2023-05-06T02:59:52.329Z,8.15
2023-05-06T03:02:18.872Z,8.13
2023-05-06T03:04:45.416Z,8.06
2023-05-06T03:07:13.119Z,8.02
2023-05-06T03:09:42.786Z,7.95
2023-05-06T03:12:09.320Z,7.83
2023-05-06T03:14:35.983Z,7.72
2023-05-06T03:17:03.513Z,7.62
2023-05-06T03:19:30.057Z,7.56
2023-05-06T03:21:56.575Z,7.51
2023-05-06T03:24:23.023Z,7.49
2023-05-06T03:26:49.617Z,7.50
2023-05-06T03:29:16.139Z,7.56
2023-05-06T03:31:42.725Z,7.61
2023-05-06T03:34:09.281Z,7.66
2023-05-06T03:36:35.871Z,7.74
2023-05-06T03:39:02.498Z,7.80
2023-05-06T03:41:29.900Z,7.86
2023-05-06T03:43:56.414Z,7.88
2023-05-06T03:46:22.971Z,7.90
2023-05-06T03:48:49.526Z,7.90
2023-05-06T03:51:16.169Z,7.87
2023-05-06T03:53:42.915Z,7.83
2023-05-06T03:56:09.693Z,7.81
2023-05-06T03:58:36.165Z,7.82
2023-05-06T04:01:02.857Z,7.80
2023-05-06T04:03:29.420Z,7.79
2023-05-06T04:05:55.985Z,7.81
2023-05-06T04:08:22.491Z,7.81
2023-05-06T04:10:49.032Z,7.79
2023-05-06T04:13:15.851Z,7.84
2023-05-06T04:15:42.617Z,7.83
2023-05-06T04:18:09.288Z,7.83
2023-05-06T04:20:36.146Z,7.83
2023-05-06T04:23:03.179Z,7.85
2023-05-06T04:25:29.987Z,7.86
2023-05-06T04:27:56.823Z,7.84
2023-05-06T04:30:23.767Z,7.76
2023-05-06T04:32:50.505Z,7.77
2023-05-06T04:35:17.266Z,7.83
2023-05-06T04:37:44.480Z,7.92
2023-05-06T04:40:14.000Z,8.06
2023-05-06T04:42:40.762Z,8.17
2023-05-06T04:45:08.007Z,8.19
2023-05-06T04:47:35.164Z,8.24
2023-05-06T04:50:10.368Z,8.29
2023-05-06T04:52:37.592Z,8.27
2023-05-06T04:55:04.531Z,8.30
2023-05-06T04:57:31.860Z,8.38
2023-05-06T04:59:58.547Z,8.50
2023-05-06T05:02:25.214Z,8.59
2023-05-06T05:04:52.145Z,8.63
2023-05-06T05:07:19.022Z,8.65
2023-05-06T05:09:46.142Z,8.71
2023-05-06T05:12:13.529Z,8.88
2023-05-06T05:14:40.718Z,9.01
2023-05-06T05:17:07.838Z,9.15
2023-05-06T05:19:34.565Z,9.27
2023-05-06T05:22:01.497Z,9.44
2023-05-06T05:24:28.375Z,9.62
2023-05-06T05:26:57.497Z,9.76
2023-05-06T05:29:24.451Z,9.96
2023-05-06T05:31:51.258Z,10.09
2023-05-06T05:34:17.926Z,10.21
2023-05-06T05:36:44.613Z,10.23
2023-05-06T05:39:11.690Z,10.24
2023-05-06T05:41:38.675Z,10.31
2023-05-06T05:44:05.422Z,10.40
2023-05-06T05:47:00.253Z,10.52
2023-05-06T05:49:27.125Z,10.65
2023-05-06T05:51:53.831Z,10.73
2023-05-06T05:54:23.314Z,10.85
2023-05-06T05:56:52.766Z,11.01
2023-05-06T05:59:19.347Z,11.13
2023-05-06T06:01:46.210Z,11.23
2023-05-06T06:04:13.017Z,11.29
2023-05-06T06:06:41.740Z,11.26
2023-05-06T06:09:09.235Z,11.23
2023-05-06T06:11:35.903Z,11.24
2023-05-06T06:14:02.477Z,11.33
2023-05-06T06:16:29.346Z,11.40
2023-05-06T06:19:07.522Z,11.49
2023-05-06T06:21:34.106Z,11.52
2023-05-06T06:24:00.716Z,11.56
2023-05-06T06:26:27.370Z,11.59
2023-05-06T06:28:53.953Z,11.71
2023-05-06T06:31:20.643Z,11.80
2023-05-06T06:33:47.195Z,11.85
2023-05-06T06:36:13.804Z,11.92
2023-05-06T06:38:41.423Z,11.98
2023-05-06T06:41:08.336Z,12.05
2023-05-06T06:43:34.820Z,12.11
2023-05-06T06:46:01.706Z,12.18
2023-05-06T06:48:28.317Z,12.24
2023-05-06T06:50:54.905Z,12.25
2023-05-06T06:53:24.401Z,12.34
2023-05-06T06:55:51.136Z,12.36
2023-05-06T06:58:17.681Z,12.43
2023-05-06T07:00:44.248Z,12.43
2023-05-06T07:03:19.477Z,12.45
2023-05-06T07:05:46.244Z,12.49
2023-05-06T07:08:12.813Z,12.65
2023-05-06T07:10:39.367Z,12.81
2023-05-06T07:13:06.018Z,12.94
2023-05-06T07:15:35.994Z,13.04
2023-05-06T07:18:04.268Z,13.15
2023-05-06T07:20:30.846Z,13.31
2023-05-06T07:22:57.463Z,13.52
2023-05-06T07:25:24.234Z,13.76
2023-05-06T07:27:50.862Z,14.11
2023-05-06T07:30:21.708Z,14.23
2023-05-06T07:32:49.582Z,14.36
2023-05-06T07:35:16.312Z,14.35
2023-05-06T07:37:42.928Z,14.48
2023-05-06T07:40:09.869Z,14.43
2023-05-06T07:42:36.724Z,14.30
2023-05-06T07:45:03.744Z,14.39
2023-05-06T07:47:33.493Z,14.41
2023-05-06T07:50:00.584Z,14.59
2023-05-06T07:52:27.716Z,15.01
2023-05-06T07:54:54.570Z,15.15
2023-05-06T07:57:21.257Z,15.16
2023-05-06T07:59:49.446Z,15.34
2023-05-06T08:02:16.378Z,15.56
2023-05-06T08:04:43.572Z,15.55
2023-05-06T08:07:12.895Z,15.32
2023-05-06T08:09:39.609Z,15.30
2023-05-06T08:12:06.452Z,15.33
2023-05-06T08:14:33.015Z,15.36
2023-05-06T08:16:59.527Z,15.54
2023-05-06T08:19:26.816Z,15.69
2023-05-06T08:21:53.549Z,16.02
2023-05-06T08:24:20.914Z,16.40
2023-05-06T08:26:47.410Z,16.56
2023-05-06T08:29:14.065Z,16.84
2023-05-06T08:31:40.883Z,17.01
2023-05-06T08:34:07.635Z,17.16
2023-05-06T08:36:34.296Z,17.38
2023-05-06T08:39:00.897Z,17.23
2023-05-06T08:41:30.694Z,17.39
2023-05-06T08:43:58.359Z,17.29
2023-05-06T08:46:25.490Z,17.06
2023-05-06T08:48:53.098Z,17.14
2023-05-06T08:51:26.226Z,17.02
2023-05-06T08:53:54.987Z,16.79
2023-05-06T08:56:28.818Z,16.71
2023-05-06T08:58:56.340Z,16.85
2023-05-06T09:01:23.290Z,17.00
2023-05-06T09:03:50.712Z,17.02
2023-05-06T09:06:19.647Z,16.93
2023-05-06T09:08:46.246Z,17.09
2023-05-06T09:11:22.020Z,17.28
2023-05-06T09:13:48.793Z,17.12
2023-05-06T09:16:32.906Z,17.61
2023-05-06T09:18:59.638Z,17.96
2023-05-06T09:21:38.335Z,18.11
2023-05-06T09:24:06.536Z,18.18
2023-05-06T09:26:35.120Z,18.15
2023-05-06T09:29:02.319Z,18.11
2023-05-06T09:31:29.793Z,18.22
2023-05-06T09:33:57.995Z,18.38
2023-05-06T09:36:26.179Z,18.61
2023-05-06T09:38:54.017Z,18.43
2023-05-06T09:41:22.977Z,18.47
2023-05-06T09:43:51.067Z,18.47
2023-05-06T09:46:18.015Z,18.59
2023-05-06T09:48:45.977Z,18.71
2023-05-06T09:51:13.311Z,18.66
2023-05-06T09:53:39.941Z,18.84
2023-05-06T09:56:07.817Z,18.97
2023-05-06T09:58:35.357Z,18.86
2023-05-06T10:01:04.166Z,18.69
2023-05-06T10:03:35.050Z,18.96
2023-05-06T10:06:03.007Z,19.33
2023-05-06T10:08:29.608Z,19.49
2023-05-06T10:10:56.972Z,19.50
2023-05-06T10:13:26.454Z,19.48
2023-05-06T10:15:53.364Z,19.34
2023-05-06T10:18:21.657Z,19.32
2023-05-06T10:20:49.441Z,19.42
2023-05-06T10:23:29.142Z,19.60
2023-05-06T10:25:57.494Z,19.71
2023-05-06T10:28:31.831Z,19.64
2023-05-06T10:30:58.974Z,19.77
2023-05-06T10:33:26.352Z,19.75
2023-05-06T10:36:21.544Z,19.90
2023-05-06T10:39:03.617Z,20.14
2023-05-06T10:41:31.743Z,20.08
2023-05-06T10:43:59.449Z,20.16
2023-05-06T10:46:27.875Z,20.50
2023-05-06T10:49:04.648Z,20.46
2023-05-06T10:51:34.761Z,20.53
2023-05-06T10:54:11.062Z,20.59
2023-05-06T10:56:39.227Z,20.63
2023-05-06T10:59:12.880Z,20.45
2023-05-06T11:01:44.939Z,20.67
2023-05-06T11:04:13.934Z,20.62
2023-05-06T11:06:43.234Z,20.74
2023-05-06T11:09:17.899Z,20.58
2023-05-06T11:11:51.716Z,20.72
2023-05-06T11:14:40.480Z,20.81
2023-05-06T11:17:31.568Z,20.83
2023-05-06T11:20:22.212Z,20.89
2023-05-06T11:22:49.047Z,21.17
2023-05-06T11:25:41.985Z,21.14
2023-05-06T11:28:12.705Z,21.08
2023-05-06T11:30:44.129Z,21.28
2023-05-06T11:33:26.114Z,21.61
2023-05-06T11:35:53.158Z,21.61
2023-05-06T11:38:19.664Z,21.69
2023-05-06T11:40:48.933Z,21.82
2023-05-06T11:43:16.635Z,22.21
2023-05-06T11:45:50.861Z,21.86
2023-05-06T11:48:18.355Z,21.67
2023-05-06T11:50:47.262Z,21.76
2023-05-06T11:53:19.418Z,22.10
2023-05-06T11:55:47.299Z,21.73
2023-05-06T11:58:19.427Z,21.34
2023-05-06T12:00:51.331Z,21.16
2023-05-06T12:03:19.618Z,21.31
2023-05-06T12:05:48.369Z,21.66
2023-05-06T12:08:34.961Z,22.17
2023-05-06T12:11:03.574Z,22.37
2023-05-06T12:13:30.941Z,22.58
2023-05-06T12:18:28.178Z,22.24
2023-05-06T12:20:56.020Z,21.82
2023-05-06T12:23:23.116Z,22.11
2023-05-06T12:26:07.479Z,22.92
2023-05-06T12:28:36.409Z,23.25
2023-05-06T12:31:26.152Z,23.06
2023-05-06T12:33:53.298Z,23.29
2023-05-06T12:36:20.528Z,23.47
2023-05-06T12:38:54.505Z,23.39
2023-05-06T12:41:23.212Z,23.02
2023-05-06T12:43:49.764Z,23.01
2023-05-06T12:46:17.652Z,23.02
2023-05-06T12:49:00.593Z,23.05
2023-05-06T12:51:28.839Z,22.95
2023-05-06T12:53:55.484Z,22.61
2023-05-06T12:56:25.331Z,22.29
2023-05-06T12:58:58.802Z,22.01
2023-05-06T13:01:28.698Z,21.75
2023-05-06T13:03:57.597Z,21.91
2023-05-06T13:06:24.498Z,22.08
2023-05-06T13:08:51.291Z,22.27
2023-05-06T13:11:17.856Z,22.34
2023-05-06T13:13:44.363Z,22.26
2023-05-06T13:16:10.922Z,22.52
2023-05-06T13:18:37.503Z,23.49
2023-05-06T13:21:04.085Z,23.79
2023-05-06T13:23:31.786Z,23.60
2023-05-06T13:26:04.694Z,23.19
2023-05-06T13:28:33.498Z,23.25
2023-05-06T13:31:00.116Z,23.43
2023-05-06T13:33:26.848Z,22.94
2023-05-06T13:35:53.470Z,22.56
2023-05-06T13:38:19.967Z,22.76
2023-05-06T13:40:51.986Z,22.89
2023-05-06T13:43:19.119Z,23.35
2023-05-06T13:45:45.786Z,24.28
2023-05-06T13:48:14.268Z,25.19
2023-05-06T13:50:45.994Z,26.24
2023-05-06T13:53:15.809Z,25.98
2023-05-06T13:55:43.325Z,25.02
2023-05-06T13:58:09.898Z,25.20
2023-05-06T14:00:36.462Z,26.11
2023-05-06T14:03:03.144Z,26.54
2023-05-06T14:05:32.575Z,27.07
2023-05-06T14:07:59.085Z,27.46
2023-05-06T14:10:25.543Z,27.14
2023-05-06T14:12:52.102Z,26.71
2023-05-06T14:15:18.713Z,27.50
2023-05-06T14:17:45.197Z,27.79
2023-05-06T14:20:11.959Z,28.17
2023-05-06T14:22:41.170Z,27.87
2023-05-06T14:25:13.613Z,27.01
2023-05-06T14:27:40.378Z,26.12
2023-05-06T14:32:48.122Z,26.15
2023-05-06T14:35:14.696Z,27.44
2023-05-06T14:37:41.131Z,28.20
2023-05-06T14:40:11.231Z,28.37
2023-05-06T14:42:37.947Z,27.79
2023-05-06T14:45:04.961Z,26.69
2023-05-06T14:47:31.503Z,25.93
2023-05-06T14:49:58.143Z,25.63
2023-05-06T14:52:24.924Z,26.15
2023-05-06T14:54:51.528Z,25.61
2023-05-06T14:57:18.284Z,25.22
2023-05-06T14:59:44.924Z,25.41
2023-05-06T15:02:11.509Z,25.22
2023-05-06T15:04:38.123Z,24.79
2023-05-06T15:07:04.697Z,24.24
2023-05-06T15:09:31.600Z,23.96
2023-05-06T15:11:58.354Z,23.69
2023-05-06T15:14:24.834Z,23.37
2023-05-06T15:16:55.807Z,23.20
2023-05-06T15:19:25.421Z,22.89
2023-05-06T15:21:51.904Z,22.66
2023-05-06T15:24:18.393Z,22.51
2023-05-06T15:26:45.209Z,22.40
2023-05-06T15:29:11.915Z,22.36
2023-05-06T15:31:40.620Z,22.43
2023-05-06T15:34:07.765Z,22.48
2023-05-06T15:36:34.239Z,22.53
2023-05-06T15:39:01.248Z,22.52
2023-05-06T15:41:30.664Z,22.58
2023-05-06T15:43:58.466Z,22.45
2023-05-06T15:46:26.244Z,22.32
2023-05-06T15:49:11.171Z,22.32
2023-05-06T15:51:40.381Z,22.36
2023-05-06T15:54:08.493Z,22.14
2023-05-06T15:56:40.638Z,22.03
2023-05-06T15:59:08.264Z,21.98
2023-05-06T16:02:00.692Z,21.78
2023-05-06T16:04:21.637Z,21.93
2023-05-06T16:06:49.037Z,22.13
2023-05-06T16:09:15.686Z,22.09
2023-05-06T16:11:42.218Z,22.11
2023-05-06T16:14:08.704Z,22.20
2023-05-06T16:16:35.257Z,22.15
2023-05-06T16:19:01.887Z,22.00
2023-05-06T16:21:28.665Z,21.85
2023-05-06T16:23:55.351Z,21.68
2023-05-06T16:26:27.655Z,21.56
2023-05-06T16:28:54.100Z,21.43
2023-05-06T16:31:20.883Z,21.39
2023-05-06T16:33:47.484Z,21.37
2023-05-06T16:36:13.985Z,21.31
2023-05-06T16:38:40.446Z,21.21
2023-05-06T16:41:07.148Z,21.11
2023-05-06T16:43:33.686Z,21.07
2023-05-06T16:46:00.326Z,21.02
2023-05-06T16:48:26.952Z,20.97
2023-05-06T16:50:53.478Z,20.91
2023-05-06T16:53:20.452Z,20.83
2023-05-06T16:55:48.814Z,20.79
2023-05-06T16:58:17.548Z,20.73
2023-05-06T17:00:44.418Z,20.68
2023-05-06T17:03:11.439Z,20.65
2023-05-06T17:05:38.253Z,20.60
2023-05-06T17:08:05.509Z,20.55
2023-05-06T17:10:32.179Z,20.49
2023-05-06T17:12:58.877Z,20.47
2023-05-06T17:15:27.035Z,20.38
2023-05-06T17:17:53.662Z,20.31
2023-05-06T17:20:20.839Z,20.25
2023-05-06T17:22:47.615Z,20.19
2023-05-06T17:25:14.824Z,20.13
2023-05-06T17:27:44.217Z,20.08
2023-05-06T17:30:15.053Z,20.00
2023-05-06T17:32:42.322Z,19.91
2023-05-06T17:35:09.757Z,19.86
2023-05-06T17:37:36.466Z,19.79
2023-05-06T17:40:03.976Z,19.73
2023-05-06T17:42:31.595Z,19.64
2023-05-06T17:44:58.183Z,19.45
2023-05-06T17:47:24.713Z,18.72
2023-05-06T17:49:54.355Z,18.02
2023-05-06T17:52:20.973Z,17.57
2023-05-06T17:55:05.832Z,17.19
2023-05-06T17:57:38.853Z,16.76
2023-05-06T18:00:10.340Z,16.45
2023-05-06T18:02:36.942Z,16.30
2023-05-06T18:05:03.677Z,16.20
2023-05-06T18:07:30.104Z,16.03
2023-05-06T18:09:56.640Z,15.86
2023-05-06T18:12:23.860Z,15.70
2023-05-06T18:14:50.622Z,15.52
2023-05-06T18:17:17.081Z,15.43
2023-05-06T18:19:43.573Z,15.38
2023-05-06T18:22:10.148Z,15.27
2023-05-06T18:24:37.313Z,15.20
2023-05-06T18:27:04.359Z,15.15
2023-05-06T18:29:32.581Z,15.09
2023-05-06T18:31:59.538Z,15.01
2023-05-06T18:34:25.979Z,15.01
2023-05-06T18:36:52.697Z,14.91
2023-05-06T18:39:19.417Z,14.90
2023-05-06T18:41:46.009Z,14.87
2023-05-06T18:44:12.802Z,14.89
2023-05-06T18:46:39.498Z,14.87
2023-05-06T18:49:06.700Z,14.83
2023-05-06T18:51:33.331Z,14.81
2023-05-06T18:53:59.964Z,14.85
2023-05-06T18:56:26.566Z,14.84
2023-05-06T18:58:53.216Z,14.85
2023-05-06T19:01:19.776Z,14.88
2023-05-06T19:03:46.836Z,14.86
2023-05-06T19:06:13.386Z,14.87
2023-05-06T19:08:40.242Z,14.86
2023-05-06T19:11:14.578Z,14.84
2023-05-06T19:13:44.988Z,14.85
2023-05-06T19:16:12.381Z,14.84
2023-05-06T19:18:39.108Z,14.83
2023-05-06T19:21:05.731Z,14.86
2023-05-06T19:23:32.819Z,14.83
2023-05-06T19:25:59.270Z,14.79
2023-05-06T19:28:27.093Z,14.77
2023-05-06T19:30:53.678Z,14.73
2023-05-06T19:33:20.352Z,14.71
2023-05-06T19:35:47.095Z,14.63
2023-05-06T19:38:13.489Z,14.54
2023-05-06T19:40:40.002Z,14.47
2023-05-06T19:43:07.065Z,14.40
2023-05-06T19:45:34.185Z,14.32
2023-05-06T19:48:01.274Z,14.26
2023-05-06T19:50:34.351Z,14.30
2023-05-06T19:53:00.796Z,14.32
2023-05-06T19:55:27.326Z,14.31
2023-05-06T19:57:56.824Z,14.30
2023-05-06T20:00:27.486Z,14.24
2023-05-06T20:02:57.043Z,14.25
2023-05-06T20:05:24.296Z,14.30
2023-05-06T20:07:51.253Z,14.35
2023-05-06T20:10:17.799Z,14.39
2023-05-06T20:12:44.331Z,14.40
2023-05-06T20:15:11.152Z,14.41
2023-05-06T20:17:38.093Z,14.41
2023-05-06T20:20:09.523Z,14.45
2023-05-06T20:22:37.143Z,14.48
2023-05-06T20:25:12.316Z,14.52
2023-05-06T20:27:41.050Z,14.55
2023-05-06T20:30:12.598Z,14.51
2023-05-06T20:32:43.079Z,14.47
2023-05-06T20:35:10.146Z,14.45
2023-05-06T20:37:36.868Z,14.38
2023-05-06T20:40:05.790Z,14.39
2023-05-06T20:42:34.977Z,14.36
2023-05-06T20:45:01.445Z,14.34
2023-05-06T20:47:28.077Z,14.29
2023-05-06T20:49:55.122Z,14.25
2023-05-06T20:52:22.036Z,14.26
2023-05-06T20:54:49.337Z,14.26
2023-05-06T20:57:16.881Z,14.22
2023-05-06T20:59:43.921Z,14.22
2023-05-06T21:02:10.689Z,14.21
2023-05-06T21:04:37.328Z,14.22
2023-05-06T21:07:03.809Z,14.18
2023-05-06T21:09:30.338Z,14.08
2023-05-06T21:11:57.202Z,14.08
2023-05-06T21:14:24.888Z,14.11
2023-05-06T21:16:52.154Z,14.14
2023-05-06T21:19:18.838Z,14.13
2023-05-06T21:21:45.742Z,14.12
2023-05-06T21:24:12.911Z,14.14
2023-05-06T21:26:42.624Z,14.17
2023-05-06T21:29:09.212Z,14.16
2023-05-06T21:31:35.748Z,14.13
2023-05-06T21:34:03.488Z,14.15
2023-05-06T21:36:29.979Z,14.15
2023-05-06T21:39:11.989Z,14.14
2023-05-06T21:41:40.516Z,14.09
2023-05-06T21:44:09.081Z,14.06
2023-05-06T21:46:37.157Z,14.01
2023-05-06T21:49:04.100Z,13.98
2023-05-06T21:51:35.931Z,13.96
2023-05-06T21:54:03.406Z,13.95
2023-05-06T21:56:30.254Z,13.92
2023-05-06T21:58:56.819Z,13.91
2023-05-06T22:01:26.176Z,13.94
2023-05-06T22:03:53.884Z,13.91
2023-05-06T22:06:20.658Z,13.86
2023-05-06T22:08:47.116Z,13.86
2023-05-06T22:11:16.536Z,13.85
2023-05-06T22:13:43.200Z,13.85
2023-05-06T22:16:09.827Z,13.85
2023-05-06T22:18:41.150Z,13.86
2023-05-06T22:21:08.623Z,13.87
2023-05-06T22:23:35.474Z,13.88
2023-05-06T22:26:01.934Z,13.90
2023-05-06T22:28:28.414Z,13.90
2023-05-06T22:30:56.560Z,13.90
2023-05-06T22:33:27.950Z,13.90
2023-05-06T22:35:55.506Z,13.87
2023-05-06T22:38:22.307Z,13.88
2023-05-06T22:40:48.859Z,13.87
2023-05-06T22:43:15.486Z,13.82
2023-05-06T22:45:41.933Z,13.77
2023-05-06T22:48:08.539Z,13.76
2023-05-06T22:50:35.271Z,13.74
2023-05-06T22:53:10.267Z,13.74
2023-05-06T22:55:40.887Z,13.78
2023-05-06T22:58:07.374Z,13.77
2023-05-06T23:00:33.906Z,13.69
2023-05-06T23:03:00.706Z,13.64
2023-05-06T23:05:27.217Z,13.59
2023-05-06T23:07:53.769Z,13.54
2023-05-06T23:10:20.292Z,13.54
2023-05-06T23:12:46.897Z,13.54
2023-05-06T23:15:13.561Z,13.53
2023-05-06T23:17:40.457Z,13.54
2023-05-06T23:20:09.074Z,13.53
2023-05-06T23:22:35.702Z,13.50
2023-05-06T23:25:02.288Z,13.50
2023-05-06T23:27:28.748Z,13.54
2023-05-06T23:29:55.315Z,13.54
2023-05-06T23:32:21.838Z,13.50
2023-05-06T23:34:49.156Z,13.44
2023-05-06T23:37:17.602Z,13.39
2023-05-06T23:39:44.187Z,13.33
2023-05-06T23:42:11.166Z,13.31
2023-05-06T23:44:37.712Z,13.31
2023-05-06T23:47:05.223Z,13.30
2023-05-06T23:49:32.245Z,13.28
2023-05-06T23:51:58.761Z,13.24
2023-05-06T23:54:25.726Z,13.24
2023-05-06T23:56:52.133Z,13.24
2023-05-06T23:59:18.931Z,13.20
